Crane Nest, Kentucky
Current Conditions -  °F | °C
As of 9:53 AM on Wednesday 26 Nov 2014 (Local Time) from KLOZ Reporting Station
Clear Clear  
Wind Chill: 40°   Ceiling: Unl
Heat Index: 40°   Visibility: 10mi
Dew Point: 29°   Wind: 0mph
Humidity: 65%   Direction: NA
Pressure: 30.09"   Gusts: NA
Location:  36.865°N, 83.9507°W
Report Text: KLOZ 261453Z AUTO 00000KT 10SM CLR 04/M02 A3009 RMK AO2 SLP192 T00441017 51020
Loading
Personal Weather Stations






























Interactive Weather Map New forecast layout! Learn more

10-Day Weather Forecast

Advertisements
Track Severe Weather on mobile